Time;durP1;ratioP1;P1;durP2;ratioP2;P2;SDS_P1;SDS_P2;PMS_P1;PMS_P2;Temp;Humidity;BMP_temperature;BMP_pressure;BME280_temperature;BME280_humidity;BME280_pressure;Samples;Min_cycle;Max_cycle;Signal;HPM_P1;HPM_P2
2023/06/22 00:00:29;;;;;;;148.38;25.85;;;;;;;;;;5034204;28;20034;-75
2023/06/22 00:02:55;;;;;;;75.68;26.50;;;;;;;;;;5034309;28;20052;-75
2023/06/22 00:05:21;;;;;;;224.70;28.67;;;;;;;;;;5034411;28;20380;-75
2023/06/22 00:07:47;;;;;;;396.50;33.72;;;;;;;;;;5034188;28;20025;-76
2023/06/22 00:10:13;;;;;;;77.55;25.60;;;;;;;;;;5034293;28;20026;-76
2023/06/22 00:12:39;;;;;;;54.53;25.52;;;;;;;;;;5034245;28;20364;-75
2023/06/22 00:15:05;;;;;;;133.35;27.35;;;;;;;;;;5034174;28;20029;-75
2023/06/22 00:17:31;;;;;;;74.47;26.90;;;;;;;;;;5033910;28;20424;-75
2023/06/22 00:20:00;;;;;;;93.80;28.90;;;;;;;;;;5034294;28;20064;-75
2023/06/22 00:22:28;;;;;;;68.97;25.83;;;;;;;;;;5034291;28;20025;-75
2023/06/22 00:24:54;;;;;;;65.05;27.77;;;;;;;;;;5034243;28;20113;-75
2023/06/22 00:27:20;;;;;;;72.82;28.45;;;;;;;;;;5033863;28;20028;-75
2023/06/22 00:29:48;;;;;;;145.32;30.52;;;;;;;;;;5033676;28;20029;-75
2023/06/22 00:32:13;;;;;;;389.30;35.35;;;;;;;;;;5034145;28;20464;-75
2023/06/22 00:34:39;;;;;;;369.15;35.35;;;;;;;;;;5033896;28;20030;-75
2023/06/22 00:37:05;;;;;;;125.85;29.52;;;;;;;;;;5033645;28;20033;-75
2023/06/22 00:39:32;;;;;;;549.65;44.13;;;;;;;;;;5033560;28;20031;-75
2023/06/22 00:41:59;;;;;;;80.03;30.85;;;;;;;;;;5033929;28;20017;-75
2023/06/22 00:44:25;;;;;;;282.67;36.22;;;;;;;;;;5033825;28;20030;-75
2023/06/22 00:46:51;;;;;;;99.55;31.20;;;;;;;;;;5033552;28;20025;-75
2023/06/22 00:49:17;;;;;;;72.90;30.48;;;;;;;;;;5032567;28;20090;-76
2023/06/22 00:51:45;;;;;;;91.97;28.05;;;;;;;;;;5033874;28;20068;-75
2023/06/22 00:54:13;;;;;;;135.98;28.42;;;;;;;;;;5034288;28;20404;-75
2023/06/22 00:56:39;;;;;;;104.05;29.42;;;;;;;;;;5034173;28;20024;-75
2023/06/22 00:59:05;;;;;;;48.97;26.27;;;;;;;;;;5033778;28;20021;-75
2023/06/22 01:01:31;;;;;;;45.05;23.83;;;;;;;;;;5033974;28;20037;-75
2023/06/22 01:03:58;;;;;;;33.20;22.48;;;;;;;;;;5033975;28;20025;-75
2023/06/22 01:06:29;;;;;;;29.85;20.85;;;;;;;;;;5033870;28;20026;-75
2023/06/22 01:09:05;;;;;;;28.13;21.50;;;;;;;;;;5033825;28;20029;-75
2023/06/22 01:11:45;;;;;;;29.80;22.02;;;;;;;;;;5033506;28;20380;-75
2023/06/22 01:14:22;;;;;;;32.08;23.15;;;;;;;;;;5033967;28;20036;-75
2023/06/22 01:16:49;;;;;;;32.20;23.38;;;;;;;;;;5034047;28;20103;-75
2023/06/22 01:19:48;;;;;;;36.72;23.48;;;;;;;;;;5033361;28;20025;-75
2023/06/22 01:22:17;;;;;;;31.10;22.02;;;;;;;;;;5030483;28;20485;-75
2023/06/22 01:24:46;;;;;;;42.75;25.33;;;;;;;;;;5032989;28;20053;-75
2023/06/22 01:27:31;;;;;;;38.65;24.60;;;;;;;;;;5033022;28;20026;-75
2023/06/22 01:30:00;;;;;;;38.67;25.15;;;;;;;;;;5033480;28;20037;-75
2023/06/22 01:32:30;;;;;;;42.63;25.83;;;;;;;;;;5033340;28;20048;-75
2023/06/22 01:34:58;;;;;;;37.47;24.80;;;;;;;;;;5033171;28;20029;-75
2023/06/22 01:37:24;;;;;;;39.35;23.55;;;;;;;;;;5033226;28;20045;-75
2023/06/22 01:39:51;;;;;;;46.15;25.80;;;;;;;;;;5032859;28;20041;-75
2023/06/22 01:42:17;;;;;;;44.95;25.38;;;;;;;;;;5033076;28;20025;-75
2023/06/22 01:44:44;;;;;;;45.95;25.08;;;;;;;;;;5033016;28;20022;-75
2023/06/22 01:47:10;;;;;;;43.80;24.50;;;;;;;;;;5033197;28;20569;-75
2023/06/22 01:49:36;;;;;;;36.33;24.50;;;;;;;;;;5032628;28;20117;-75
2023/06/22 01:52:03;;;;;;;40.42;23.67;;;;;;;;;;5032366;28;20449;-75
2023/06/22 01:54:29;;;;;;;37.42;23.45;;;;;;;;;;5033133;28;20018;-75
2023/06/22 01:56:55;;;;;;;42.30;23.00;;;;;;;;;;5033309;28;20104;-75
2023/06/22 01:59:26;;;;;;;119.55;25.33;;;;;;;;;;5034948;28;20022;-75
2023/06/22 02:01:58;;;;;;;99.90;21.02;;;;;;;;;;5037412;28;20092;-75
2023/06/22 02:04:26;;;;;;;164.23;19.80;;;;;;;;;;5036943;28;20025;-75
2023/06/22 02:06:55;;;;;;;175.10;16.77;;;;;;;;;;5037004;28;20108;-75
2023/06/22 02:09:22;;;;;;;100.10;14.95;;;;;;;;;;5037009;28;20033;-75
2023/06/22 02:11:53;;;;;;;109.55;16.08;;;;;;;;;;5037024;28;20033;-75
2023/06/22 02:14:20;;;;;;;75.55;14.07;;;;;;;;;;5037069;28;20018;-75
2023/06/22 02:16:46;;;;;;;84.47;14.35;;;;;;;;;;5036918;28;20029;-75
2023/06/22 02:19:12;;;;;;;151.63;18.08;;;;;;;;;;5037284;28;20032;-75
2023/06/22 02:21:38;;;;;;;99.50;15.77;;;;;;;;;;5036982;28;20416;-75
2023/06/22 02:24:05;;;;;;;50.40;11.77;;;;;;;;;;5036839;28;20496;-75
2023/06/22 02:26:31;;;;;;;58.33;13.00;;;;;;;;;;5036417;28;20035;-75
2023/06/22 02:28:57;;;;;;;30.27;12.05;;;;;;;;;;5036681;28;20060;-75
2023/06/22 02:31:29;;;;;;;28.27;12.45;;;;;;;;;;5036633;28;20029;-75
2023/06/22 02:33:57;;;;;;;37.13;12.85;;;;;;;;;;5036443;28;20043;-75
2023/06/22 02:36:23;;;;;;;30.88;13.63;;;;;;;;;;5036549;28;20018;-75
2023/06/22 02:38:50;;;;;;;19.40;13.25;;;;;;;;;;5036649;28;20095;-75
2023/06/22 02:41:19;;;;;;;15.40;12.43;;;;;;;;;;5036357;28;20171;-75
2023/06/22 02:43:45;;;;;;;29.10;14.57;;;;;;;;;;5036580;28;20029;-75
2023/06/22 02:46:12;;;;;;;39.58;15.75;;;;;;;;;;5036094;28;20100;-75
2023/06/22 02:48:39;;;;;;;24.35;14.98;;;;;;;;;;5035995;28;20018;-75
2023/06/22 02:51:05;;;;;;;33.50;15.40;;;;;;;;;;5034738;28;20060;-76
2023/06/22 02:53:31;;;;;;;22.13;15.45;;;;;;;;;;5036101;28;20033;-75
2023/06/22 02:55:57;;;;;;;19.15;15.55;;;;;;;;;;5036184;28;20021;-76
2023/06/22 02:58:24;;;;;;;24.40;16.48;;;;;;;;;;5035929;28;20105;-75
2023/06/22 03:00:52;;;;;;;18.92;16.20;;;;;;;;;;5035811;28;20120;-76
2023/06/22 03:03:19;;;;;;;22.05;16.83;;;;;;;;;;5035871;28;20016;-75
2023/06/22 03:05:45;;;;;;;24.33;17.65;;;;;;;;;;5035547;28;20100;-75
2023/06/22 03:08:11;;;;;;;22.73;16.23;;;;;;;;;;5035417;28;20036;-75
2023/06/22 03:10:37;;;;;;;27.63;18.00;;;;;;;;;;5035326;28;20029;-75
2023/06/22 03:13:03;;;;;;;41.33;18.83;;;;;;;;;;5035309;28;20021;-75
2023/06/22 03:15:31;;;;;;;27.23;17.85;;;;;;;;;;5035174;28;20041;-75
2023/06/22 03:17:57;;;;;;;52.05;20.23;;;;;;;;;;5035488;28;20017;-75
2023/06/22 03:20:23;;;;;;;53.05;20.88;;;;;;;;;;5035182;28;20519;-75
2023/06/22 03:22:49;;;;;;;32.35;19.85;;;;;;;;;;5035591;28;20464;-75
2023/06/22 03:25:15;;;;;;;42.70;20.13;;;;;;;;;;5035365;28;20060;-75
2023/06/22 03:27:43;;;;;;;24.27;19.25;;;;;;;;;;5035796;28;20038;-75
2023/06/22 03:30:10;;;;;;;46.60;19.63;;;;;;;;;;5036179;28;20021;-75
2023/06/22 03:32:36;;;;;;;41.95;21.75;;;;;;;;;;5035124;28;20036;-75
2023/06/22 03:35:03;;;;;;;37.97;20.58;;;;;;;;;;5035387;28;20080;-75
2023/06/22 03:37:29;;;;;;;58.20;19.67;;;;;;;;;;5035082;28;20025;-76
2023/06/22 03:39:55;;;;;;;50.92;22.70;;;;;;;;;;5034730;28;20037;-75
2023/06/22 03:42:21;;;;;;;45.67;19.45;;;;;;;;;;5034713;28;20419;-75
2023/06/22 03:44:48;;;;;;;45.05;23.08;;;;;;;;;;5034849;28;20516;-76
2023/06/22 03:47:14;;;;;;;82.45;23.08;;;;;;;;;;5034686;28;20412;-75
2023/06/22 03:49:40;;;;;;;82.50;21.73;;;;;;;;;;5034299;28;20041;-76
2023/06/22 03:52:06;;;;;;;48.97;20.35;;;;;;;;;;5035127;28;20073;-75
2023/06/22 03:54:32;;;;;;;93.38;20.50;;;;;;;;;;5035184;28;20504;-75
2023/06/22 03:56:58;;;;;;;76.30;20.48;;;;;;;;;;5034963;28;20108;-75
2023/06/22 03:59:25;;;;;;;44.38;21.88;;;;;;;;;;5024574;28;20022;-75
2023/06/22 04:01:51;;;;;;;67.45;19.17;;;;;;;;;;5034359;28;20071;-75
2023/06/22 04:04:18;;;;;;;63.47;19.52;;;;;;;;;;5034211;28;20067;-75
2023/06/22 04:06:44;;;;;;;32.85;18.55;;;;;;;;;;5034035;28;20025;-75
2023/06/22 04:09:10;;;;;;;55.33;19.13;;;;;;;;;;5034155;28;20591;-75
2023/06/22 04:11:36;;;;;;;49.80;17.60;;;;;;;;;;5034114;28;20060;-75
2023/06/22 04:14:02;;;;;;;60.78;18.70;;;;;;;;;;5034224;28;20021;-75
2023/06/22 04:16:28;;;;;;;59.67;18.45;;;;;;;;;;5034738;28;20025;-75
2023/06/22 04:18:54;;;;;;;61.88;19.20;;;;;;;;;;5033931;28;20026;-75
2023/06/22 04:21:20;;;;;;;19.38;11.90;;;;;;;;;;5033319;28;20038;-75
2023/06/22 04:23:47;;;;;;;65.28;20.73;;;;;;;;;;5034037;28;20706;-75
2023/06/22 04:26:16;;;;;;;36.72;18.23;;;;;;;;;;5033667;28;20105;-75
2023/06/22 04:28:42;;;;;;;39.83;17.50;;;;;;;;;;5033762;28;20033;-76
2023/06/22 04:31:08;;;;;;;54.85;16.30;;;;;;;;;;5034083;28;20036;-76
2023/06/22 04:33:34;;;;;;;47.08;15.90;;;;;;;;;;5033691;28;20029;-75
2023/06/22 04:36:01;;;;;;;48.78;15.20;;;;;;;;;;5033609;28;20061;-75
2023/06/22 04:38:27;;;;;;;32.78;15.85;;;;;;;;;;5033684;28;20025;-75
2023/06/22 04:40:53;;;;;;;39.25;15.88;;;;;;;;;;5033205;28;20087;-76
2023/06/22 04:43:20;;;;;;;20.27;15.18;;;;;;;;;;5033243;28;20096;-76
2023/06/22 04:45:46;;;;;;;40.88;16.88;;;;;;;;;;5033403;28;20032;-76
2023/06/22 04:48:15;;;;;;;24.75;16.55;;;;;;;;;;5031911;28;20030;-75
2023/06/22 04:50:42;;;;;;;17.45;15.10;;;;;;;;;;5012912;28;20073;-75
2023/06/22 04:53:09;;;;;;;76.50;17.65;;;;;;;;;;5033010;28;20083;-75
2023/06/22 04:55:37;;;;;;;17.52;14.35;;;;;;;;;;5033377;28;20017;-75
2023/06/22 04:58:06;;;;;;;18.63;14.60;;;;;;;;;;5033413;28;20025;-75
2023/06/22 05:00:36;;;;;;;20.53;15.07;;;;;;;;;;5033029;28;20042;-75
2023/06/22 05:03:03;;;;;;;66.65;17.73;;;;;;;;;;5033121;28;20273;-75
2023/06/22 05:05:29;;;;;;;62.20;17.92;;;;;;;;;;5033241;28;20018;-75
2023/06/22 05:08:00;;;;;;;35.35;17.75;;;;;;;;;;5033368;28;20112;-75
2023/06/22 05:10:26;;;;;;;36.35;16.48;;;;;;;;;;5032817;28;20029;-75
2023/06/22 05:12:52;;;;;;;63.75;18.48;;;;;;;;;;5032812;28;20029;-75
2023/06/22 05:15:19;;;;;;;68.88;18.60;;;;;;;;;;5032740;28;20079;-75
2023/06/22 05:17:45;;;;;;;37.08;18.13;;;;;;;;;;5033124;28;20025;-75
2023/06/22 05:20:12;;;;;;;42.92;19.25;;;;;;;;;;5032559;28;20060;-76
2023/06/22 05:22:38;;;;;;;34.88;19.48;;;;;;;;;;5032603;28;20033;-76
2023/06/22 05:25:06;;;;;;;21.73;19.17;;;;;;;;;;5032784;28;20468;-76
2023/06/22 05:27:32;;;;;;;21.88;18.02;;;;;;;;;;5032773;28;20021;-76
2023/06/22 05:29:58;;;;;;;20.25;18.17;;;;;;;;;;5032665;28;20109;-75
2023/06/22 05:32:24;;;;;;;19.33;16.95;;;;;;;;;;5022916;28;20338;-74
2023/06/22 05:34:50;;;;;;;19.83;17.13;;;;;;;;;;5031621;28;20508;-73
2023/06/22 05:37:16;;;;;;;17.95;15.18;;;;;;;;;;5032553;28;20102;-73
2023/06/22 05:39:42;;;;;;;17.02;15.20;;;;;;;;;;5032294;28;20022;-74
2023/06/22 05:42:08;;;;;;;17.40;15.60;;;;;;;;;;5032737;28;20357;-74
2023/06/22 05:44:34;;;;;;;16.60;14.75;;;;;;;;;;5032844;28;20029;-74
2023/06/22 05:47:01;;;;;;;16.40;14.65;;;;;;;;;;5032908;28;20034;-74
2023/06/22 05:49:32;;;;;;;17.17;15.45;;;;;;;;;;5032509;28;20026;-74
2023/06/22 05:51:58;;;;;;;16.02;14.43;;;;;;;;;;5033009;28;20075;-74
2023/06/22 05:54:24;;;;;;;15.05;13.60;;;;;;;;;;5032429;28;20017;-74
2023/06/22 05:56:50;;;;;;;15.57;13.85;;;;;;;;;;5032731;28;20033;-74
2023/06/22 05:59:16;;;;;;;16.30;14.65;;;;;;;;;;5033074;28;20480;-74
2023/06/22 06:01:42;;;;;;;17.13;15.45;;;;;;;;;;5032497;28;20065;-74
2023/06/22 06:04:08;;;;;;;15.77;14.25;;;;;;;;;;5032565;28;20018;-74
2023/06/22 06:06:36;;;;;;;15.73;14.23;;;;;;;;;;5032507;28;20368;-74
2023/06/22 06:09:04;;;;;;;14.75;13.35;;;;;;;;;;5033112;28;20018;-74
2023/06/22 06:11:30;;;;;;;15.45;14.05;;;;;;;;;;5033015;28;20025;-74
2023/06/22 06:13:56;;;;;;;16.23;14.73;;;;;;;;;;5033065;28;20095;-74
2023/06/22 06:16:22;;;;;;;15.50;13.90;;;;;;;;;;5033282;28;20076;-74
2023/06/22 06:18:50;;;;;;;16.27;14.68;;;;;;;;;;5033329;28;20026;-74
2023/06/22 06:21:16;;;;;;;15.85;14.15;;;;;;;;;;5033009;28;20084;-74
2023/06/22 06:23:42;;;;;;;17.42;15.73;;;;;;;;;;5032569;28;20030;-74
2023/06/22 06:26:08;;;;;;;17.55;15.75;;;;;;;;;;5032927;28;20021;-74
2023/06/22 06:28:34;;;;;;;17.30;15.55;;;;;;;;;;5032889;28;20025;-74
2023/06/22 06:31:01;;;;;;;17.13;15.40;;;;;;;;;;5033484;28;20026;-74
2023/06/22 06:33:27;;;;;;;16.27;14.68;;;;;;;;;;5033457;28;20080;-74
2023/06/22 06:35:55;;;;;;;16.67;15.00;;;;;;;;;;5033187;28;20013;-74
2023/06/22 06:38:21;;;;;;;17.23;15.40;;;;;;;;;;5033966;28;20045;-74
2023/06/22 06:40:48;;;;;;;17.73;16.00;;;;;;;;;;5033115;28;20119;-74
2023/06/22 06:43:14;;;;;;;17.02;15.35;;;;;;;;;;5034297;28;20349;-74
2023/06/22 06:45:40;;;;;;;16.92;15.35;;;;;;;;;;5036690;28;20021;-74
2023/06/22 06:48:06;;;;;;;17.58;15.07;;;;;;;;;;5037613;28;20025;-74
2023/06/22 06:50:33;;;;;;;16.45;14.75;;;;;;;;;;5036485;28;20455;-74
2023/06/22 06:52:59;;;;;;;16.40;14.70;;;;;;;;;;5037960;28;20418;-74
2023/06/22 06:55:25;;;;;;;16.00;14.40;;;;;;;;;;5036951;28;20468;-73
2023/06/22 06:57:52;;;;;;;16.83;15.23;;;;;;;;;;5038351;28;20018;-74
2023/06/22 07:00:18;;;;;;;17.92;14.52;;;;;;;;;;5037814;28;20028;-74
2023/06/22 07:02:45;;;;;;;15.38;13.80;;;;;;;;;;5037060;28;20100;-74
2023/06/22 07:05:12;;;;;;;17.67;14.27;;;;;;;;;;5037228;28;20010;-74
2023/06/22 07:07:38;;;;;;;15.18;13.75;;;;;;;;;;5036903;28;20026;-74
2023/06/22 07:10:05;;;;;;;16.45;14.75;;;;;;;;;;5036973;28;20026;-74
2023/06/22 07:12:31;;;;;;;15.60;13.70;;;;;;;;;;5037837;28;20028;-74
2023/06/22 07:15:11;;;;;;;16.52;14.20;;;;;;;;;;5037072;28;20021;-74
2023/06/22 07:17:39;;;;;;;16.80;14.40;;;;;;;;;;5037117;28;20037;-74
2023/06/22 07:20:23;;;;;;;16.90;14.18;;;;;;;;;;5036037;28;20025;-74
2023/06/22 07:22:49;;;;;;;15.40;13.85;;;;;;;;;;5036952;28;20021;-74
2023/06/22 07:25:16;;;;;;;17.42;15.68;;;;;;;;;;5037136;28;20024;-74
2023/06/22 07:27:47;;;;;;;16.02;14.38;;;;;;;;;;5036916;28;20034;-74
2023/06/22 07:30:13;;;;;;;17.65;13.73;;;;;;;;;;5037123;28;20036;-74
2023/06/22 07:32:40;;;;;;;14.75;13.32;;;;;;;;;;5036991;28;20064;-74
2023/06/22 07:35:06;;;;;;;16.10;14.40;;;;;;;;;;5035956;28;20025;-74
2023/06/22 07:37:33;;;;;;;16.90;15.10;;;;;;;;;;5036040;28;20032;-73
2023/06/22 07:39:59;;;;;;;16.23;14.65;;;;;;;;;;5036704;28;20049;-74
2023/06/22 07:42:26;;;;;;;17.67;15.93;;;;;;;;;;5035374;28;20029;-74
2023/06/22 07:44:52;;;;;;;18.42;16.45;;;;;;;;;;5034616;28;20052;-74
2023/06/22 07:47:19;;;;;;;16.25;14.55;;;;;;;;;;5037553;28;20029;-74
2023/06/22 07:49:45;;;;;;;17.05;15.32;;;;;;;;;;5035417;28;20132;-75
2023/06/22 07:52:26;;;;;;;17.48;15.68;;;;;;;;;;5036579;28;20049;-74
2023/06/22 07:54:53;;;;;;;17.05;15.35;;;;;;;;;;5036394;28;20033;-74
2023/06/22 07:57:19;;;;;;;18.23;15.70;;;;;;;;;;5035235;28;20021;-74
2023/06/22 07:59:45;;;;;;;16.30;14.68;;;;;;;;;;5036173;28;20341;-74
2023/06/22 08:02:11;;;;;;;15.40;13.88;;;;;;;;;;5034909;28;20395;-74
2023/06/22 08:04:37;;;;;;;17.67;15.88;;;;;;;;;;5035047;28;20085;-74
2023/06/22 08:07:04;;;;;;;16.40;13.82;;;;;;;;;;5035518;28;20037;-74
2023/06/22 08:09:30;;;;;;;14.35;12.85;;;;;;;;;;5034811;28;20030;-74
2023/06/22 08:11:56;;;;;;;15.90;12.80;;;;;;;;;;5035649;28;20025;-74
2023/06/22 08:14:23;;;;;;;15.35;13.70;;;;;;;;;;5035743;28;20025;-74
2023/06/22 08:16:49;;;;;;;13.32;11.63;;;;;;;;;;5035160;28;20103;-74
2023/06/22 08:19:15;;;;;;;12.23;10.93;;;;;;;;;;5035442;28;20025;-74
2023/06/22 08:21:41;;;;;;;15.95;13.50;;;;;;;;;;5036781;28;20534;-75
2023/06/22 08:24:07;;;;;;;15.30;13.68;;;;;;;;;;5035387;28;20029;-74
2023/06/22 08:26:36;;;;;;;14.88;12.95;;;;;;;;;;5036001;28;20372;-74
2023/06/22 08:29:03;;;;;;;14.52;13.07;;;;;;;;;;5037099;28;20052;-74
2023/06/22 08:31:29;;;;;;;16.45;14.57;;;;;;;;;;5036765;28;20025;-74
2023/06/22 08:33:55;;;;;;;14.57;12.88;;;;;;;;;;5036264;28;20021;-74
2023/06/22 08:36:21;;;;;;;14.15;12.70;;;;;;;;;;5035204;28;20029;-74
2023/06/22 08:38:51;;;;;;;16.55;14.73;;;;;;;;;;5036973;28;20030;-74
2023/06/22 08:41:17;;;;;;;15.70;14.02;;;;;;;;;;5034476;28;20036;-74
2023/06/22 08:43:44;;;;;;;13.88;12.48;;;;;;;;;;5034801;28;20021;-74
2023/06/22 08:46:10;;;;;;;12.65;10.65;;;;;;;;;;5035510;28;20028;-74
2023/06/22 08:48:36;;;;;;;11.57;10.38;;;;;;;;;;5035812;28;20025;-74
2023/06/22 08:51:03;;;;;;;11.00;9.02;;;;;;;;;;5033691;28;20405;-74
2023/06/22 08:53:29;;;;;;;10.10;8.60;;;;;;;;;;5034719;28;20025;-74
2023/06/22 08:55:55;;;;;;;11.30;9.38;;;;;;;;;;5036159;28;20073;-74
2023/06/22 08:58:21;;;;;;;10.38;9.05;;;;;;;;;;5034208;28;20453;-74
2023/06/22 09:00:47;;;;;;;9.32;8.27;;;;;;;;;;5034859;28;20069;-75
2023/06/22 09:03:13;;;;;;;8.60;7.05;;;;;;;;;;5035217;28;20026;-74
2023/06/22 09:05:39;;;;;;;8.32;7.60;;;;;;;;;;5035357;28;20025;-74
2023/06/22 09:08:05;;;;;;;10.07;8.75;;;;;;;;;;5035154;28;20021;-74
2023/06/22 09:10:31;;;;;;;11.82;9.85;;;;;;;;;;5035695;28;20037;-74
2023/06/22 09:12:58;;;;;;;10.43;8.80;;;;;;;;;;5035279;28;20427;-74
2023/06/22 09:15:24;;;;;;;8.95;8.05;;;;;;;;;;5035378;28;20025;-74
2023/06/22 09:17:50;;;;;;;8.80;7.90;;;;;;;;;;5034644;28;20021;-75
2023/06/22 09:20:17;;;;;;;8.77;7.78;;;;;;;;;;5033520;28;20107;-74
2023/06/22 09:22:43;;;;;;;8.68;7.63;;;;;;;;;;5035452;28;20028;-74
2023/06/22 09:25:10;;;;;;;9.63;8.73;;;;;;;;;;5035131;28;20026;-74
2023/06/22 09:27:36;;;;;;;8.68;7.15;;;;;;;;;;5034920;28;20487;-75
2023/06/22 09:30:03;;;;;;;10.52;7.88;;;;;;;;;;5035177;28;20100;-74
2023/06/22 09:32:29;;;;;;;8.30;6.78;;;;;;;;;;5034987;28;20108;-74
2023/06/22 09:34:55;;;;;;;8.20;7.10;;;;;;;;;;5034880;28;20083;-74
2023/06/22 09:37:21;;;;;;;9.93;8.23;;;;;;;;;;5035291;28;20032;-74
2023/06/22 09:39:47;;;;;;;8.57;7.72;;;;;;;;;;5034581;28;20029;-74
2023/06/22 09:42:13;;;;;;;9.10;7.05;;;;;;;;;;5034593;28;20109;-74
2023/06/22 09:44:39;;;;;;;10.32;8.38;;;;;;;;;;5034457;28;20029;-74
2023/06/22 09:47:05;;;;;;;9.10;8.15;;;;;;;;;;5034130;28;20032;-74
2023/06/22 09:49:32;;;;;;;8.73;7.82;;;;;;;;;;5033773;28;20060;-74
2023/06/22 09:51:58;;;;;;;8.27;7.18;;;;;;;;;;5033560;28;20131;-74
2023/06/22 09:54:24;;;;;;;8.25;7.45;;;;;;;;;;5034570;28;20030;-74
2023/06/22 09:56:50;;;;;;;7.13;6.38;;;;;;;;;;5034258;28;20021;-75
2023/06/22 09:59:16;;;;;;;8.00;7.20;;;;;;;;;;5034239;28;20074;-75
2023/06/22 10:01:42;;;;;;;9.20;7.15;;;;;;;;;;5034842;28;20056;-75
2023/06/22 10:04:08;;;;;;;8.27;6.85;;;;;;;;;;5034665;28;20452;-75
2023/06/22 10:06:34;;;;;;;10.45;7.70;;;;;;;;;;5034770;28;20025;-75
2023/06/22 10:09:00;;;;;;;8.98;6.60;;;;;;;;;;5035238;28;20040;-74
2023/06/22 10:11:30;;;;;;;6.68;4.00;;;;;;;;;;5035155;28;20116;-74
2023/06/22 10:13:56;;;;;;;7.88;7.03;;;;;;;;;;5035242;28;20418;-74
2023/06/22 10:16:26;;;;;;;9.45;8.45;;;;;;;;;;5035290;28;20022;-75
2023/06/22 10:18:52;;;;;;;9.23;8.23;;;;;;;;;;5034578;28;20060;-75
2023/06/22 10:21:18;;;;;;;9.15;8.05;;;;;;;;;;5038306;28;20048;-75
2023/06/22 10:23:44;;;;;;;9.57;7.82;;;;;;;;;;5038881;28;20021;-74
2023/06/22 10:26:10;;;;;;;8.32;7.10;;;;;;;;;;5038724;28;20478;-74
2023/06/22 10:28:36;;;;;;;7.07;5.20;;;;;;;;;;5037444;28;20026;-74
2023/06/22 10:31:02;;;;;;;5.63;4.85;;;;;;;;;;5036845;28;20029;-74
2023/06/22 10:33:28;;;;;;;10.18;7.65;;;;;;;;;;5037687;28;20025;-74
2023/06/22 10:35:54;;;;;;;11.20;9.55;;;;;;;;;;5038173;28;20445;-74
2023/06/22 10:38:20;;;;;;;8.75;6.95;;;;;;;;;;5038583;28;20468;-75
2023/06/22 10:40:46;;;;;;;10.68;7.97;;;;;;;;;;5038368;28;20037;-75
2023/06/22 10:43:12;;;;;;;9.32;7.18;;;;;;;;;;5038929;28;20026;-75
2023/06/22 10:45:38;;;;;;;9.13;7.35;;;;;;;;;;5037860;28;20075;-75
2023/06/22 10:48:05;;;;;;;9.75;8.75;;;;;;;;;;5037065;28;20025;-75
2023/06/22 10:50:31;;;;;;;10.52;8.80;;;;;;;;;;5016686;28;20484;-75
2023/06/22 10:52:57;;;;;;;9.73;8.07;;;;;;;;;;5017296;28;20026;-75
2023/06/22 10:55:23;;;;;;;12.55;8.40;;;;;;;;;;5017099;28;20062;-75
2023/06/22 10:57:49;;;;;;;10.20;8.10;;;;;;;;;;5016484;28;20037;-75
2023/06/22 11:00:16;;;;;;;10.63;8.98;;;;;;;;;;5032508;28;20057;-74
2023/06/22 11:02:42;;;;;;;9.13;7.82;;;;;;;;;;5036713;28;20032;-75
2023/06/22 11:05:08;;;;;;;9.70;6.82;;;;;;;;;;5035757;28;20033;-75
2023/06/22 11:07:34;;;;;;;8.77;5.78;;;;;;;;;;5037047;28;20022;-75
2023/06/22 11:10:00;;;;;;;6.68;5.18;;;;;;;;;;5037666;28;20025;-75
2023/06/22 11:12:26;;;;;;;7.45;6.40;;;;;;;;;;5035597;28;20022;-75
2023/06/22 11:14:52;;;;;;;7.15;6.35;;;;;;;;;;5032830;28;20029;-75
2023/06/22 11:17:18;;;;;;;9.43;6.50;;;;;;;;;;5037817;28;20029;-75
2023/06/22 11:19:45;;;;;;;6.22;5.60;;;;;;;;;;5036350;28;20364;-75
2023/06/22 11:22:11;;;;;;;5.45;4.47;;;;;;;;;;5036692;28;20456;-75
2023/06/22 11:24:37;;;;;;;8.25;6.78;;;;;;;;;;5037827;28;20104;-75
2023/06/22 11:27:03;;;;;;;8.02;6.53;;;;;;;;;;5036881;28;20052;-75
2023/06/22 11:29:30;;;;;;;6.03;5.43;;;;;;;;;;5036267;28;20060;-75
2023/06/22 11:31:56;;;;;;;7.10;6.05;;;;;;;;;;5035048;28;20030;-75
2023/06/22 11:34:22;;;;;;;6.97;6.10;;;;;;;;;;5035919;28;20357;-75
2023/06/22 11:36:48;;;;;;;7.03;5.93;;;;;;;;;;5036582;28;20388;-75
2023/06/22 11:39:14;;;;;;;6.88;5.88;;;;;;;;;;5037543;28;20080;-75
2023/06/22 11:41:41;;;;;;;6.18;5.40;;;;;;;;;;5037189;28;20033;-75
2023/06/22 11:44:07;;;;;;;5.60;5.07;;;;;;;;;;5036867;28;20380;-75
2023/06/22 11:46:34;;;;;;;6.85;5.70;;;;;;;;;;5036719;28;20033;-75
2023/06/22 11:49:00;;;;;;;6.97;5.88;;;;;;;;;;5037157;28;20022;-75
2023/06/22 11:51:26;;;;;;;6.90;5.97;;;;;;;;;;5036570;28;20058;-75
2023/06/22 11:53:53;;;;;;;6.97;5.20;;;;;;;;;;5037131;28;20029;-75
2023/06/22 11:56:19;;;;;;;5.43;3.97;;;;;;;;;;5036158;28;20495;-75
2023/06/22 11:58:45;;;;;;;7.93;5.65;;;;;;;;;;5036166;28;20021;-75
2023/06/22 12:01:14;;;;;;;8.82;6.95;;;;;;;;;;5036580;28;20526;-75
2023/06/22 12:03:40;;;;;;;6.65;5.85;;;;;;;;;;5036486;28;20052;-75
2023/06/22 12:06:06;;;;;;;7.30;6.38;;;;;;;;;;5036781;28;20025;-75
2023/06/22 12:08:32;;;;;;;7.55;6.80;;;;;;;;;;5035628;28;20079;-75
2023/06/22 12:10:58;;;;;;;10.75;6.47;;;;;;;;;;5036933;28;20039;-75
2023/06/22 12:13:24;;;;;;;10.05;6.72;;;;;;;;;;5037149;28;20059;-75
2023/06/22 12:15:52;;;;;;;7.78;6.88;;;;;;;;;;5037140;28;20048;-75
2023/06/22 12:18:20;;;;;;;8.75;7.03;;;;;;;;;;5036358;28;20025;-75
2023/06/22 12:20:46;;;;;;;7.18;4.88;;;;;;;;;;5035942;28;20064;-75
2023/06/22 12:23:12;;;;;;;8.73;6.47;;;;;;;;;;5052097;28;20026;-75
2023/06/22 12:25:38;;;;;;;10.13;6.00;;;;;;;;;;5036986;28;20033;-75
2023/06/22 12:28:04;;;;;;;8.43;7.15;;;;;;;;;;5035820;28;20026;-75
2023/06/22 12:30:31;;;;;;;6.22;5.63;;;;;;;;;;5038088;28;20029;-75
2023/06/22 12:32:57;;;;;;;7.35;6.18;;;;;;;;;;5029756;28;20528;-75
2023/06/22 12:35:23;;;;;;;6.60;5.10;;;;;;;;;;5036332;28;20029;-75
2023/06/22 12:37:49;;;;;;;6.57;5.50;;;;;;;;;;5037127;28;20026;-74
2023/06/22 12:40:15;;;;;;;7.72;6.05;;;;;;;;;;5035046;28;20037;-75
2023/06/22 12:42:42;;;;;;;5.03;4.10;;;;;;;;;;5036121;28;20029;-75
2023/06/22 12:45:08;;;;;;;8.50;5.15;;;;;;;;;;5037033;28;20606;-75
2023/06/22 12:47:34;;;;;;;7.18;5.28;;;;;;;;;;5036777;28;20403;-75
2023/06/22 12:50:00;;;;;;;6.38;5.22;;;;;;;;;;5036147;28;20029;-75
2023/06/22 12:52:26;;;;;;;5.53;3.65;;;;;;;;;;5037946;28;20033;-75
2023/06/22 12:54:54;;;;;;;6.43;4.40;;;;;;;;;;5037053;28;20022;-75
2023/06/22 12:57:20;;;;;;;5.95;4.70;;;;;;;;;;5035572;28;20021;-74
2023/06/22 12:59:46;;;;;;;5.90;4.43;;;;;;;;;;5034737;28;20021;-75
2023/06/22 13:02:12;;;;;;;5.50;4.88;;;;;;;;;;5036219;28;20037;-75
2023/06/22 13:04:38;;;;;;;5.20;4.57;;;;;;;;;;5035996;28;20034;-75
2023/06/22 13:07:04;;;;;;;5.68;4.50;;;;;;;;;;5036353;28;20055;-75
2023/06/22 13:09:31;;;;;;;6.90;4.22;;;;;;;;;;5035909;28;20021;-75
2023/06/22 13:11:57;;;;;;;3.53;3.22;;;;;;;;;;5035717;28;20025;-75
2023/06/22 13:14:23;;;;;;;3.95;3.25;;;;;;;;;;5035040;28;20104;-75
2023/06/22 13:16:50;;;;;;;3.28;2.63;;;;;;;;;;5034892;28;20021;-75
2023/06/22 13:19:16;;;;;;;4.82;2.95;;;;;;;;;;5035712;28;20428;-75
2023/06/22 13:21:42;;;;;;;3.28;2.30;;;;;;;;;;5035491;28;20033;-75
2023/06/22 13:24:08;;;;;;;3.22;2.35;;;;;;;;;;5035928;28;20032;-75
2023/06/22 13:26:34;;;;;;;3.42;2.22;;;;;;;;;;5035521;28;20025;-75
2023/06/22 13:29:00;;;;;;;2.42;2.00;;;;;;;;;;5034028;28;20032;-74
2023/06/22 13:31:26;;;;;;;2.53;1.95;;;;;;;;;;5033835;28;20040;-74
2023/06/22 13:33:52;;;;;;;2.85;1.90;;;;;;;;;;5032339;28;20508;-74
2023/06/22 13:36:19;;;;;;;2.97;2.30;;;;;;;;;;5032656;28;20029;-74
2023/06/22 13:38:45;;;;;;;5.07;1.73;;;;;;;;;;5032623;28;20020;-74
2023/06/22 13:41:11;;;;;;;1.48;1.17;;;;;;;;;;5033528;28;20493;-74
2023/06/22 13:43:37;;;;;;;2.97;1.80;;;;;;;;;;5034128;28;20030;-75
2023/06/22 13:46:03;;;;;;;3.65;2.00;;;;;;;;;;5035362;28;20033;-75
2023/06/22 13:48:29;;;;;;;1.92;1.65;;;;;;;;;;5035586;28;20680;-75
2023/06/22 13:50:55;;;;;;;2.25;1.45;;;;;;;;;;5035403;28;20053;-76
2023/06/22 13:53:21;;;;;;;3.17;1.67;;;;;;;;;;5033925;28;20030;-75
2023/06/22 13:55:47;;;;;;;3.50;1.60;;;;;;;;;;5037245;28;20029;-75
2023/06/22 13:58:14;;;;;;;2.47;1.90;;;;;;;;;;5039613;28;20428;-75
2023/06/22 14:00:46;;;;;;;3.72;1.70;;;;;;;;;;5039212;28;20036;-75
2023/06/22 14:03:15;;;;;;;2.40;1.88;;;;;;;;;;5039527;28;20487;-75
2023/06/22 14:05:41;;;;;;;1.45;1.35;;;;;;;;;;5039777;28;20022;-75
2023/06/22 14:08:07;;;;;;;2.13;1.50;;;;;;;;;;5038563;28;20028;-75
2023/06/22 14:10:33;;;;;;;2.38;1.40;;;;;;;;;;5037847;28;20026;-74
2023/06/22 14:13:00;;;;;;;3.58;1.00;;;;;;;;;;5037157;28;20035;-74
2023/06/22 14:15:26;;;;;;;1.70;1.60;;;;;;;;;;5037947;28;20044;-75
2023/06/22 14:17:52;;;;;;;3.53;1.20;;;;;;;;;;5037961;28;20018;-75
2023/06/22 14:20:18;;;;;;;1.30;1.00;;;;;;;;;;5039454;28;20052;-75
2023/06/22 14:22:44;;;;;;;2.47;1.55;;;;;;;;;;5039288;28;20021;-75